Foreston, Minnesota
Current Conditions -  °F | °C
As of 7:54 PM on Saturday 22 Nov 2014 (Local Time) from KPNM Reporting Station
Haze Haze  
Wind Chill: 29°   Ceiling: 200
Heat Index: 36°   Visibility: 1.7mi
Dew Point: 34°   Wind: 8mph
Humidity: 93%   Direction: 130°SE
Pressure: 29.57"   Gusts: NA
Location:  45.73°N, 93.71°W
Report Text: KPNM 230154Z AUTO 13007KT 1 3/4SM BR OVC002 02/01 A2957 RMK AO2
Loading
Personal Weather Stations






























Interactive Weather Map New forecast layout! Learn more

10-Day Weather Forecast

Advertisements
Track Severe Weather on mobile